Oktoc, Mississippi
Current Conditions -  °F | °C
As of 10:35 PM on Friday 19 Dec 2014 (Local Time) from KSTF Reporting Station
Overcast Overcast  
Wind Chill: 38°   Ceiling: 4700
Heat Index: 41°   Visibility: 7mi
Dew Point: 39°   Wind: 5mph
Humidity: 93%   Direction: 40°NE
Pressure: 30.2"   Gusts: NA
Location:  33.4256°N, 88.8438°W
Report Text: KSTF 200435Z AUTO 04004KT 7SM OVC047 05/04 A3020 RMK AO2
Loading
Personal Weather Stations






























Interactive Weather Map New forecast layout! Learn more

10-Day Weather Forecast

Advertisements
Track Severe Weather on mobile